createdAt,value
2022-12-25T00:04:08.398Z,101307.56
2022-12-25T00:09:06.654Z,101361.97
2022-12-25T00:14:04.759Z,101334.84
2022-12-25T00:19:01.838Z,101414.09
2022-12-25T00:23:59.871Z,101379.81
2022-12-25T00:28:58.201Z,101347.34
2022-12-25T00:33:56.114Z,101392.03
2022-12-25T00:38:54.883Z,101415.31
2022-12-25T00:43:51.909Z,101382.69
2022-12-25T00:48:48.874Z,101393.09
2022-12-25T00:53:47.022Z,101339.28
2022-12-25T00:58:44.113Z,101407.13
2022-12-25T01:03:41.305Z,101393.50
2022-12-25T01:09:00.261Z,101386.38
2022-12-25T01:13:58.377Z,101399.47
2022-12-25T01:18:55.855Z,101401.09
2022-12-25T01:23:53.606Z,101324.84
2022-12-25T01:28:54.252Z,101314.53
2022-12-25T01:33:52.257Z,101335.19
2022-12-25T01:38:50.303Z,101384.88
2022-12-25T01:44:00.210Z,101439.19
2022-12-25T01:49:05.187Z,101429.84
2022-12-25T01:54:05.735Z,101346.59
2022-12-25T01:59:04.591Z,101414.31
2022-12-25T02:04:08.920Z,101314.06
2022-12-25T02:09:06.189Z,101426.47
2022-12-25T02:14:03.358Z,101434.91
2022-12-25T02:19:11.362Z,101441.91
2022-12-25T02:24:41.975Z,101377.56
2022-12-25T02:29:48.137Z,101407.81
2022-12-25T02:34:52.074Z,101453.31
2022-12-25T02:40:01.775Z,101412.94
2022-12-25T02:45:17.921Z,101340.00
2022-12-25T02:50:34.186Z,101449.88
2022-12-25T02:55:55.307Z,101410.31
2022-12-25T03:01:26.088Z,101344.25
2022-12-25T03:06:44.249Z,101320.22
2022-12-25T03:11:45.765Z,101401.97
2022-12-25T03:16:53.234Z,101390.91
2022-12-25T03:22:08.585Z,101377.25
2022-12-25T03:27:05.590Z,101422.00
2022-12-25T03:32:35.063Z,101365.47
2022-12-25T03:38:12.067Z,101469.44
2022-12-25T03:43:42.767Z,101467.78
2022-12-25T03:49:20.468Z,101437.78
2022-12-25T03:54:41.809Z,101385.72
2022-12-25T04:00:00.166Z,101495.75
2022-12-25T04:05:15.971Z,101502.81
2022-12-25T04:10:31.236Z,101473.63
2022-12-25T04:15:46.830Z,101462.56
2022-12-25T04:21:01.815Z,101409.50
2022-12-25T04:26:17.216Z,101477.41
2022-12-25T04:31:32.181Z,101489.44
2022-12-25T04:36:30.239Z,101501.66
2022-12-25T04:41:27.326Z,101470.81
2022-12-25T04:46:24.610Z,101518.97
2022-12-25T04:51:24.940Z,101471.91
2022-12-25T04:56:23.262Z,101555.63
2022-12-25T05:01:20.407Z,101561.88
2022-12-25T05:06:17.591Z,101563.69
2022-12-25T05:11:16.316Z,101536.34
2022-12-25T05:16:16.369Z,101596.72
2022-12-25T05:21:13.818Z,101552.72
2022-12-25T05:26:10.723Z,101515.78
2022-12-25T05:31:07.694Z,101600.28
2022-12-25T05:36:07.552Z,101576.28
2022-12-25T05:41:05.255Z,101536.78
2022-12-25T05:46:06.141Z,101591.97
2022-12-25T05:51:08.982Z,101619.59
2022-12-25T05:56:07.982Z,101600.88
2022-12-25T06:01:10.800Z,101552.84
2022-12-25T06:06:08.807Z,101586.25
2022-12-25T06:11:07.854Z,101585.44
2022-12-25T06:16:05.983Z,101556.16
2022-12-25T06:21:07.327Z,101636.06
2022-12-25T06:26:20.391Z,101642.09
2022-12-25T06:31:19.986Z,101609.34
2022-12-25T06:36:20.092Z,101689.47
2022-12-25T06:41:19.509Z,101657.50
2022-12-25T06:46:17.135Z,101703.19
2022-12-25T06:51:14.739Z,101713.38
2022-12-25T06:56:14.975Z,101643.53
2022-12-25T07:01:18.934Z,101718.28
2022-12-25T07:06:17.126Z,101726.81
2022-12-25T07:11:14.213Z,101730.09
2022-12-25T07:16:12.622Z,101746.34
2022-12-25T07:21:12.396Z,101694.50
2022-12-25T07:26:10.997Z,101731.47
2022-12-25T07:31:14.462Z,101763.28
2022-12-25T07:36:20.671Z,101760.56
2022-12-25T07:41:18.067Z,101764.03
2022-12-25T07:46:15.126Z,101715.97
2022-12-25T07:51:14.658Z,101740.09
2022-12-25T07:56:13.791Z,101749.59
2022-12-25T08:01:13.506Z,101793.31
2022-12-25T08:06:11.518Z,101758.91
2022-12-25T08:11:14.370Z,101791.63
2022-12-25T08:16:11.518Z,101724.38
2022-12-25T08:21:10.739Z,101812.16
2022-12-25T08:26:11.801Z,101798.38
2022-12-25T08:31:11.194Z,101786.22
2022-12-25T08:36:11.366Z,101729.19
2022-12-25T08:41:09.807Z,101683.34
2022-12-25T08:46:07.010Z,101775.31
2022-12-25T08:51:05.286Z,101777.75
2022-12-25T08:56:05.872Z,101735.25
2022-12-25T09:01:04.507Z,101796.13
2022-12-25T09:06:03.727Z,101796.13
2022-12-25T09:11:02.355Z,101809.56
2022-12-25T09:16:00.482Z,101745.63
2022-12-25T09:21:01.716Z,101789.00
2022-12-25T09:26:03.684Z,101775.16
2022-12-25T09:31:02.598Z,101770.44
2022-12-25T09:36:01.734Z,101821.78
2022-12-25T09:41:01.446Z,101708.00
2022-12-25T09:46:00.379Z,101793.78
2022-12-25T09:51:03.305Z,101762.81
2022-12-25T09:56:15.093Z,101724.81
2022-12-25T10:01:34.114Z,101743.66
2022-12-25T10:06:54.204Z,101758.91
2022-12-25T10:12:09.420Z,101714.09
2022-12-25T10:17:29.490Z,101784.38
2022-12-25T10:22:34.483Z,101778.19
2022-12-25T10:27:35.464Z,101760.91
2022-12-25T10:32:36.761Z,101793.38
2022-12-25T10:37:34.995Z,101751.00
2022-12-25T10:42:46.292Z,101766.09
2022-12-25T10:47:46.021Z,101771.00
2022-12-25T10:52:56.768Z,101819.81
2022-12-25T10:57:54.631Z,101796.50
2022-12-25T11:02:55.208Z,101821.00
2022-12-25T11:07:56.401Z,101795.06
2022-12-25T11:13:05.429Z,101768.94
2022-12-25T11:18:03.140Z,101819.41
2022-12-25T11:23:01.038Z,101807.06
2022-12-25T11:28:04.474Z,101748.22
2022-12-25T11:33:05.189Z,101789.34
2022-12-25T11:38:03.660Z,101781.22
2022-12-25T11:43:08.347Z,101799.31
2022-12-25T11:48:17.999Z,101728.66
2022-12-25T11:53:23.303Z,101809.19
2022-12-25T11:58:25.891Z,101839.97
2022-12-25T12:03:28.331Z,101802.84
2022-12-25T12:08:28.041Z,101828.72
2022-12-25T12:13:43.924Z,101811.41
2022-12-25T12:18:46.576Z,101826.53
2022-12-25T12:23:53.766Z,101779.84
2022-12-25T12:28:58.434Z,101792.69
2022-12-25T12:33:58.432Z,101795.47
2022-12-25T12:38:58.552Z,101801.63
2022-12-25T12:44:03.451Z,101880.81
2022-12-25T12:49:17.210Z,101878.09
2022-12-25T12:54:22.637Z,101871.97
2022-12-25T12:59:19.583Z,101864.50
2022-12-25T13:04:57.784Z,101866.38
2022-12-25T13:10:07.648Z,101830.53
2022-12-25T13:15:12.296Z,101873.06
2022-12-25T13:20:22.427Z,101831.66
2022-12-25T13:25:22.197Z,101853.78
2022-12-25T13:30:21.978Z,101854.97
2022-12-25T13:35:23.270Z,101875.84
2022-12-25T13:40:30.839Z,101884.94
2022-12-25T13:45:30.021Z,101804.94
2022-12-25T13:50:31.894Z,101858.00
2022-12-25T13:55:29.975Z,101908.47
2022-12-25T14:00:34.933Z,101905.47
2022-12-25T14:05:41.616Z,101829.75
2022-12-25T14:10:41.642Z,101866.56
2022-12-25T14:15:40.234Z,101926.22
2022-12-25T14:20:40.906Z,101934.56
2022-12-25T14:25:44.001Z,101938.50
2022-12-25T14:30:42.834Z,101941.53
2022-12-25T14:35:39.764Z,101960.50
2022-12-25T14:40:37.133Z,101949.72
2022-12-25T14:45:37.976Z,101951.84
2022-12-25T14:50:39.031Z,101969.78
2022-12-25T14:55:37.589Z,101935.00
2022-12-25T15:00:40.862Z,101982.13
2022-12-25T15:05:40.682Z,101925.72
2022-12-25T15:15:59.690Z,101899.84
2022-12-25T15:20:56.598Z,101990.63
2022-12-25T15:25:53.427Z,101956.53
2022-12-25T15:30:50.282Z,101952.44
2022-12-25T15:35:48.404Z,101974.50
2022-12-25T15:40:46.802Z,101976.28
2022-12-25T15:45:44.885Z,101987.84
2022-12-25T15:50:43.601Z,101991.56
2022-12-25T15:55:41.473Z,101991.03
2022-12-25T16:00:38.340Z,101987.75
2022-12-25T16:05:35.605Z,101962.97
2022-12-25T16:10:43.498Z,101895.19
2022-12-25T16:15:40.768Z,101989.38
2022-12-25T16:20:38.027Z,101937.13
2022-12-25T16:25:34.818Z,101986.28
2022-12-25T16:30:32.568Z,102002.84
2022-12-25T16:35:29.545Z,102030.75
2022-12-25T16:40:26.903Z,102023.22
2022-12-25T16:45:23.959Z,101981.19
2022-12-25T16:50:23.225Z,102008.03
2022-12-25T16:55:29.673Z,102036.56
2022-12-25T17:00:27.203Z,102026.38
2022-12-25T17:05:24.932Z,102055.03
2022-12-25T17:10:22.134Z,101998.34
2022-12-25T17:15:21.598Z,102077.03
2022-12-25T17:20:28.475Z,102038.25
2022-12-25T17:25:26.883Z,102064.25
2022-12-25T17:30:23.933Z,102048.06
2022-12-25T17:35:22.836Z,102077.41
2022-12-25T17:40:22.190Z,102053.41
2022-12-25T17:45:22.129Z,102074.25
2022-12-25T17:50:19.078Z,102063.22
2022-12-25T17:55:18.103Z,102050.22
2022-12-25T18:00:16.150Z,102069.41
2022-12-25T18:05:13.985Z,102115.28
2022-12-25T18:10:11.343Z,102132.59
2022-12-25T18:15:11.764Z,102114.41
2022-12-25T18:20:09.639Z,102113.56
2022-12-25T18:25:08.240Z,102066.91
2022-12-25T18:30:12.445Z,102101.41
2022-12-25T18:35:11.313Z,102115.38
2022-12-25T18:40:09.992Z,102075.56
2022-12-25T18:45:09.432Z,102112.69
2022-12-25T18:50:08.575Z,102106.91
2022-12-25T18:55:06.782Z,102129.38
2022-12-25T19:00:05.476Z,102123.47
2022-12-25T19:05:02.768Z,102119.22
2022-12-25T19:09:59.781Z,102122.03
2022-12-25T19:14:59.544Z,102138.38
2022-12-25T19:19:57.390Z,102036.41
2022-12-25T19:24:54.557Z,102011.59
2022-12-25T19:29:51.680Z,102126.50
2022-12-25T19:34:48.805Z,102141.41
2022-12-25T19:39:46.745Z,102074.25
2022-12-25T19:44:44.241Z,102167.75
2022-12-25T19:49:57.361Z,102099.59
2022-12-25T19:54:58.792Z,102148.19
2022-12-25T19:59:56.208Z,102112.75
2022-12-25T20:04:53.221Z,102067.81
2022-12-25T20:09:50.183Z,102143.13
2022-12-25T20:14:48.797Z,102157.84
2022-12-25T20:19:45.894Z,102127.72
2022-12-25T20:24:43.089Z,102102.84
2022-12-25T20:29:43.312Z,102139.25
2022-12-25T20:34:41.258Z,102153.13
2022-12-25T20:39:38.635Z,102167.03
2022-12-25T20:44:35.704Z,102178.41
2022-12-25T20:49:34.168Z,102166.31
2022-12-25T20:54:31.912Z,102166.31
2022-12-25T20:59:33.592Z,102208.91
2022-12-25T21:04:34.325Z,102204.59
2022-12-25T21:09:33.043Z,102162.28
2022-12-25T21:14:30.055Z,102215.16
2022-12-25T21:19:27.377Z,102210.84
2022-12-25T21:24:25.524Z,102182.38
2022-12-25T21:29:23.883Z,102210.16
2022-12-25T21:34:23.161Z,102170.34
2022-12-25T21:39:20.022Z,102163.38
2022-12-25T21:44:16.820Z,102174.72
2022-12-25T21:49:36.817Z,102199.84
2022-12-25T21:54:34.445Z,102154.00
2022-12-25T21:59:31.555Z,102180.91
2022-12-25T22:04:29.177Z,102154.13
2022-12-25T22:09:26.817Z,102128.16
2022-12-25T22:14:52.834Z,102189.69
2022-12-25T22:19:51.466Z,102145.63
2022-12-25T22:24:50.095Z,102151.84
2022-12-25T22:29:48.288Z,102203.03
2022-12-25T22:34:45.112Z,102179.69
2022-12-25T22:39:43.354Z,102224.88
2022-12-25T22:44:40.431Z,102227.50
2022-12-25T22:49:37.476Z,102237.97
2022-12-25T22:54:37.457Z,102162.59
2022-12-25T22:59:35.267Z,102193.75
2022-12-25T23:04:37.012Z,102250.28
2022-12-25T23:09:34.319Z,102259.22
2022-12-25T23:14:39.950Z,102248.06
2022-12-25T23:19:55.752Z,102294.97
2022-12-25T23:25:10.984Z,102310.66
2022-12-25T23:30:10.200Z,102269.03
2022-12-25T23:35:09.114Z,102323.69
2022-12-25T23:40:07.702Z,102323.72
2022-12-25T23:45:05.237Z,102308.94
2022-12-25T23:50:02.612Z,102252.56
2022-12-25T23:55:00.298Z,102351.41
2022-12-25T23:59:57.093Z,102332.28
